sensor_id;sensor_type;location;lat;lon;timestamp;pressure;altitude;pressure_sealevel;temperature;humidity
47054;BME280;32811;52.382;5.270;2023-04-01T00:01:03;99109.84;;;9.03;100.00
47054;BME280;32811;52.382;5.270;2023-04-01T00:03:30;99103.00;;;9.02;100.00
47054;BME280;32811;52.382;5.270;2023-04-01T00:06:00;99104.75;;;9.00;100.00
47054;BME280;32811;52.382;5.270;2023-04-01T00:08:28;99115.03;;;9.00;100.00
47054;BME280;32811;52.382;5.270;2023-04-01T00:10:55;99116.81;;;8.98;100.00
47054;BME280;32811;52.382;5.270;2023-04-01T00:13:25;99114.25;;;8.96;100.00
47054;BME280;32811;52.382;5.270;2023-04-01T00:15:54;99117.72;;;8.93;100.00
47054;BME280;32811;52.382;5.270;2023-04-01T00:18:22;99106.66;;;8.88;100.00
47054;BME280;32811;52.382;5.270;2023-04-01T00:20:50;99122.06;;;8.91;100.00
47054;BME280;32811;52.382;5.270;2023-04-01T00:23:19;99120.34;;;8.90;100.00
47054;BME280;32811;52.382;5.270;2023-04-01T00:25:46;99117.81;;;8.87;100.00
47054;BME280;32811;52.382;5.270;2023-04-01T00:28:19;99117.00;;;8.85;100.00
47054;BME280;32811;52.382;5.270;2023-04-01T00:30:46;99117.91;;;8.83;100.00
47054;BME280;32811;52.382;5.270;2023-04-01T00:33:13;99108.59;;;8.76;100.00
47054;BME280;32811;52.382;5.270;2023-04-01T00:35:40;99103.47;;;8.74;100.00
47054;BME280;32811;52.382;5.270;2023-04-01T00:38:07;99113.69;;;8.79;100.00
47054;BME280;32811;52.382;5.270;2023-04-01T00:40:40;99119.63;;;8.82;100.00
47054;BME280;32811;52.382;5.270;2023-04-01T00:43:16;99127.28;;;8.85;100.00
47054;BME280;32811;52.382;5.270;2023-04-01T00:45:46;99120.47;;;8.83;100.00
47054;BME280;32811;52.382;5.270;2023-04-01T00:48:17;99111.19;;;8.72;100.00
47054;BME280;32811;52.382;5.270;2023-04-01T00:50:50;99131.63;;;8.82;100.00
47054;BME280;32811;52.382;5.270;2023-04-01T00:53:19;99128.22;;;8.81;100.00
47054;BME280;32811;52.382;5.270;2023-04-01T00:56:00;99124.88;;;8.75;100.00
47054;BME280;32811;52.382;5.270;2023-04-01T00:58:32;99135.16;;;8.76;100.00
47054;BME280;32811;52.382;5.270;2023-04-01T01:01:01;99136.97;;;8.69;100.00
47054;BME280;32811;52.382;5.270;2023-04-01T01:03:28;99135.16;;;8.76;100.00
47054;BME280;32811;52.382;5.270;2023-04-01T01:06:02;99138.66;;;8.72;100.00
47054;BME280;32811;52.382;5.270;2023-04-01T01:08:49;99136.97;;;8.71;100.00
47054;BME280;32811;52.382;5.270;2023-04-01T01:11:27;99136.16;;;8.66;100.00
47054;BME280;32811;52.382;5.270;2023-04-01T01:14:14;99135.31;;;8.65;100.00
47054;BME280;32811;52.382;5.270;2023-04-01T01:16:54;99147.31;;;8.66;100.00
47054;BME280;32811;52.382;5.270;2023-04-01T01:36:13;99139.75;;;8.56;100.00
47054;BME280;32811;52.382;5.270;2023-04-01T01:38:40;99142.34;;;8.56;100.00
47054;BME280;32811;52.382;5.270;2023-04-01T01:41:09;99149.16;;;8.57;100.00
47054;BME280;32811;52.382;5.270;2023-04-01T01:43:41;99156.03;;;8.56;100.00
47054;BME280;32811;52.382;5.270;2023-04-01T01:46:20;99153.47;;;8.56;100.00
47054;BME280;32811;52.382;5.270;2023-04-01T01:48:49;99162.91;;;8.54;100.00
47054;BME280;32811;52.382;5.270;2023-04-01T01:51:18;99153.59;;;8.48;100.00
47054;BME280;32811;52.382;5.270;2023-04-01T01:53:45;99151.03;;;8.47;100.00
47054;BME280;32811;52.382;5.270;2023-04-01T01:56:12;99157.84;;;8.48;100.00
47054;BME280;32811;52.382;5.270;2023-04-01T01:58:44;99163.81;;;8.53;100.00
47054;BME280;32811;52.382;5.270;2023-04-01T02:01:24;99156.16;;;8.48;100.00
47054;BME280;32811;52.382;5.270;2023-04-01T02:03:52;99153.63;;;8.45;100.00
47054;BME280;32811;52.382;5.270;2023-04-01T02:06:22;99162.97;;;8.49;100.00
47054;BME280;32811;52.382;5.270;2023-04-01T02:08:54;99166.38;;;8.51;100.00
47054;BME280;32811;52.382;5.270;2023-04-01T02:11:40;99171.53;;;8.50;100.00
47054;BME280;32811;52.382;5.270;2023-04-01T02:14:17;99171.59;;;8.48;100.00
47054;BME280;32811;52.382;5.270;2023-04-01T02:17:02;99175.00;;;8.47;100.00
47054;BME280;32811;52.382;5.270;2023-04-01T02:19:38;99180.16;;;8.47;100.00
47054;BME280;32811;52.382;5.270;2023-04-01T02:22:09;99184.44;;;8.48;100.00
47054;BME280;32811;52.382;5.270;2023-04-01T02:24:38;99182.72;;;8.49;100.00
47054;BME280;32811;52.382;5.270;2023-04-01T02:27:06;99171.69;;;8.41;100.00
47054;BME280;32811;52.382;5.270;2023-04-01T02:29:33;99180.22;;;8.44;100.00
47054;BME280;32811;52.382;5.270;2023-04-01T02:32:00;99169.97;;;8.37;100.00
47054;BME280;32811;52.382;5.270;2023-04-01T02:34:29;99191.34;;;8.43;100.00
47054;BME280;32811;52.382;5.270;2023-04-01T02:36:57;99192.19;;;8.44;100.00
47054;BME280;32811;52.382;5.270;2023-04-01T02:39:23;99197.31;;;8.45;100.00
47054;BME280;32811;52.382;5.270;2023-04-01T02:41:52;99200.72;;;8.47;100.00
47054;BME280;32811;52.382;5.270;2023-04-01T02:44:18;99189.66;;;8.39;100.00
47054;BME280;32811;52.382;5.270;2023-04-01T02:46:45;99192.22;;;8.39;100.00
47054;BME280;32811;52.382;5.270;2023-04-01T02:49:12;99159.06;;;8.21;100.00
47054;BME280;32811;52.382;5.270;2023-04-01T02:51:38;99200.78;;;8.41;100.00
47054;BME280;32811;52.382;5.270;2023-04-01T02:54:05;99206.78;;;8.43;100.00
47054;BME280;32811;52.382;5.270;2023-04-01T02:56:32;99206.78;;;8.43;100.00
47054;BME280;32811;52.382;5.270;2023-04-01T02:58:58;99193.16;;;8.35;100.00
47054;BME280;32811;52.382;5.270;2023-04-01T03:01:25;99217.06;;;8.43;100.00
47054;BME280;32811;52.382;5.270;2023-04-01T03:03:51;99213.66;;;8.41;100.00
47054;BME280;32811;52.382;5.270;2023-04-01T03:06:18;99209.38;;;8.39;100.00
47054;BME280;32811;52.382;5.270;2023-04-01T03:08:45;99229.06;;;8.44;100.00
47054;BME280;32811;52.382;5.270;2023-04-01T03:11:12;99205.28;;;8.24;100.00
47054;BME280;32811;52.382;5.270;2023-04-01T03:13:38;99227.34;;;8.43;100.00
47054;BME280;32811;52.382;5.270;2023-04-01T03:16:06;99226.50;;;8.41;100.00
47054;BME280;32811;52.382;5.270;2023-04-01T03:18:32;99235.88;;;8.47;100.00
47054;BME280;32811;52.382;5.270;2023-04-01T03:21:17;99246.16;;;8.47;100.00
47054;BME280;32811;52.382;5.270;2023-04-01T03:23:44;99244.47;;;8.44;100.00
47054;BME280;32811;52.382;5.270;2023-04-01T03:26:11;99254.72;;;8.47;100.00
47054;BME280;32811;52.382;5.270;2023-04-01T03:28:38;99248.81;;;8.41;100.00
47054;BME280;32811;52.382;5.270;2023-04-01T03:31:05;99255.66;;;8.42;100.00
47054;BME280;32811;52.382;5.270;2023-04-01T03:33:32;99255.56;;;8.49;100.00
47054;BME280;32811;52.382;5.270;2023-04-01T03:35:58;99266.72;;;8.48;100.00
47054;BME280;32811;52.382;5.270;2023-04-01T03:38:25;99265.00;;;8.47;100.00
47054;BME280;32811;52.382;5.270;2023-04-01T03:40:52;99263.34;;;8.43;100.00
47054;BME280;32811;52.382;5.270;2023-04-01T03:43:19;99267.63;;;8.44;100.00
47054;BME280;32811;52.382;5.270;2023-04-01T03:45:50;99276.06;;;8.52;100.00
47054;BME280;32811;52.382;5.270;2023-04-01T03:48:18;99276.06;;;8.54;100.00
47054;BME280;32811;52.382;5.270;2023-04-01T03:50:44;99245.47;;;8.31;100.00
47054;BME280;32811;52.382;5.270;2023-04-01T03:53:11;99276.97;;;8.50;100.00
47054;BME280;32811;52.382;5.270;2023-04-01T03:55:38;99284.63;;;8.56;100.00
47054;BME280;32811;52.382;5.270;2023-04-01T03:58:06;99288.88;;;8.57;100.00
47054;BME280;32811;52.382;5.270;2023-04-01T04:00:33;99278.66;;;8.52;100.00
47054;BME280;32811;52.382;5.270;2023-04-01T04:02:59;99280.31;;;8.57;100.00
47054;BME280;32811;52.382;5.270;2023-04-01T04:05:27;99291.28;;;8.71;100.00
47054;BME280;32811;52.382;5.270;2023-04-01T04:07:53;99299.78;;;8.76;100.00
47054;BME280;32811;52.382;5.270;2023-04-01T04:10:20;99308.28;;;8.81;100.00
47054;BME280;32811;52.382;5.270;2023-04-01T04:12:49;99299.84;;;8.71;100.00
47054;BME280;32811;52.382;5.270;2023-04-01T04:15:16;99320.31;;;8.79;100.00
47054;BME280;32811;52.382;5.270;2023-04-01T04:17:46;99310.94;;;8.75;100.00
47054;BME280;32811;52.382;5.270;2023-04-01T04:20:14;99319.50;;;8.77;100.00
47054;BME280;32811;52.382;5.270;2023-04-01T04:22:41;99322.94;;;8.76;100.00
47054;BME280;32811;52.382;5.270;2023-04-01T04:25:08;99316.06;;;8.78;100.00
47054;BME280;32811;52.382;5.270;2023-04-01T04:27:35;99309.31;;;8.68;100.00
47054;BME280;32811;52.382;5.270;2023-04-01T04:30:02;99338.34;;;8.79;100.00
47054;BME280;32811;52.382;5.270;2023-04-01T04:32:30;99328.16;;;8.73;100.00
47054;BME280;32811;52.382;5.270;2023-04-01T04:34:56;99344.31;;;8.81;100.00
47054;BME280;32811;52.382;5.270;2023-04-01T04:37:23;99343.47;;;8.79;100.00
47054;BME280;32811;52.382;5.270;2023-04-01T04:39:49;99310.28;;;8.59;100.00
47054;BME280;32811;52.382;5.270;2023-04-01T04:42:16;99335.94;;;8.64;100.00
47054;BME280;32811;52.382;5.270;2023-04-01T04:44:43;99360.63;;;8.79;100.00
47054;BME280;32811;52.382;5.270;2023-04-01T04:47:10;99335.09;;;8.65;100.00
47054;BME280;32811;52.382;5.270;2023-04-01T04:49:37;99350.47;;;8.71;100.00
47054;BME280;32811;52.382;5.270;2023-04-01T04:52:03;99353.88;;;8.68;100.00
47054;BME280;32811;52.382;5.270;2023-04-01T04:54:30;99370.19;;;8.69;100.00
47054;BME280;32811;52.382;5.270;2023-04-01T04:56:56;99376.91;;;8.79;100.00
47054;BME280;32811;52.382;5.270;2023-04-01T04:59:23;99387.25;;;8.75;100.00
47054;BME280;32811;52.382;5.270;2023-04-01T05:01:50;99366.06;;;8.56;100.00
47054;BME280;32811;52.382;5.270;2023-04-01T05:04:17;99377.91;;;8.69;100.00
47054;BME280;32811;52.382;5.270;2023-04-01T05:06:43;99390.72;;;8.72;100.00
47054;BME280;32811;52.382;5.270;2023-04-01T05:09:11;99398.38;;;8.78;100.00
47054;BME280;32811;52.382;5.270;2023-04-01T05:11:38;99404.38;;;8.77;100.00
47054;BME280;32811;52.382;5.270;2023-04-01T05:14:05;99405.25;;;8.76;100.00
47054;BME280;32811;52.382;5.270;2023-04-01T05:16:31;99380.59;;;8.60;100.00
47054;BME280;32811;52.382;5.270;2023-04-01T05:18:58;99411.25;;;8.75;100.00
47054;BME280;32811;52.382;5.270;2023-04-01T05:21:24;99421.59;;;8.73;100.00
47054;BME280;32811;52.382;5.270;2023-04-01T05:23:51;99403.69;;;8.63;100.00
47054;BME280;32811;52.382;5.270;2023-04-01T05:26:18;99431.03;;;8.73;100.00
47054;BME280;32811;52.382;5.270;2023-04-01T05:28:44;99401.22;;;8.55;100.00
47054;BME280;32811;52.382;5.270;2023-04-01T05:31:11;99420.81;;;8.67;100.00
47054;BME280;32811;52.382;5.270;2023-04-01T05:33:38;99443.78;;;8.82;100.00
47054;BME280;32811;52.382;5.270;2023-04-01T05:36:11;99439.53;;;8.78;100.00
47054;BME280;32811;52.382;5.270;2023-04-01T05:38:38;99408.91;;;8.57;100.00
47054;BME280;32811;52.382;5.270;2023-04-01T05:41:05;99438.75;;;8.73;100.00
47054;BME280;32811;52.382;5.270;2023-04-01T05:43:35;99445.59;;;8.74;100.00
47054;BME280;32811;52.382;5.270;2023-04-01T05:46:02;99438.00;;;8.62;100.00
47054;BME280;32811;52.382;5.270;2023-04-01T05:48:29;99455.94;;;8.69;100.00
47054;BME280;32811;52.382;5.270;2023-04-01T05:50:55;99472.09;;;8.82;100.00
47054;BME280;32811;52.382;5.270;2023-04-01T05:53:22;99457.56;;;8.78;100.00
47054;BME280;32811;52.382;5.270;2023-04-01T05:55:48;99484.91;;;8.84;100.00
47054;BME280;32811;52.382;5.270;2023-04-01T05:58:15;99456.03;;;8.62;100.00
47054;BME280;32811;52.382;5.270;2023-04-01T06:00:42;99481.56;;;8.77;100.00
47054;BME280;32811;52.382;5.270;2023-04-01T06:03:09;99488.53;;;8.69;100.00
47054;BME280;32811;52.382;5.270;2023-04-01T06:05:41;99484.22;;;8.68;100.00
47054;BME280;32811;52.382;5.270;2023-04-01T06:08:16;99490.16;;;8.76;100.00
47054;BME280;32811;52.382;5.270;2023-04-01T06:11:04;99503.91;;;8.70;100.00
47054;BME280;32811;52.382;5.270;2023-04-01T06:16:25;99510.78;;;8.71;100.00
47054;BME280;32811;52.382;5.270;2023-04-01T06:18:59;99517.63;;;8.76;100.00
47054;BME280;32811;52.382;5.270;2023-04-01T06:25:38;99520.97;;;8.81;100.00
47054;BME280;32811;52.382;5.270;2023-04-01T06:39:17;99535.44;;;8.92;100.00
47054;BME280;32811;52.382;5.270;2023-04-01T06:42:06;99539.69;;;8.95;100.00
47054;BME280;32811;52.382;5.270;2023-04-01T06:45:02;99532.91;;;8.88;100.00
47054;BME280;32811;52.382;5.270;2023-04-01T06:53:43;99559.44;;;8.94;100.00
47054;BME280;32811;52.382;5.270;2023-04-01T06:56:16;99565.38;;;9.00;100.00
47054;BME280;32811;52.382;5.270;2023-04-01T06:58:59;99553.53;;;8.83;100.00
47054;BME280;32811;52.382;5.270;2023-04-01T07:01:34;99581.72;;;9.00;100.00
47054;BME280;32811;52.382;5.270;2023-04-01T07:04:06;99579.19;;;8.94;100.00
47054;BME280;32811;52.382;5.270;2023-04-01T07:06:42;99586.91;;;8.92;100.00
47054;BME280;32811;52.382;5.270;2023-04-01T07:09:16;99582.63;;;8.93;100.00
47054;BME280;32811;52.382;5.270;2023-04-01T07:11:45;99582.66;;;8.90;100.00
47054;BME280;32811;52.382;5.270;2023-04-01T07:14:34;99600.63;;;8.96;100.00
47054;BME280;32811;52.382;5.270;2023-04-01T07:17:10;99599.78;;;8.94;100.00
47054;BME280;32811;52.382;5.270;2023-04-01T07:22:45;99608.28;;;9.02;100.00
47054;BME280;32811;52.382;5.270;2023-04-01T07:25:16;99613.44;;;8.99;100.00
47054;BME280;32811;52.382;5.270;2023-04-01T07:27:45;99614.28;;;9.01;100.00
47054;BME280;32811;52.382;5.270;2023-04-01T07:30:18;99617.75;;;9.00;100.00
47054;BME280;32811;52.382;5.270;2023-04-01T07:32:52;99633.97;;;9.07;100.00
47054;BME280;32811;52.382;5.270;2023-04-01T07:40:41;99642.56;;;9.07;100.00
47054;BME280;32811;52.382;5.270;2023-04-01T07:59:07;99662.28;;;9.07;100.00
47054;BME280;32811;52.382;5.270;2023-04-01T08:02:15;99666.56;;;9.11;100.00
47054;BME280;32811;52.382;5.270;2023-04-01T08:10:59;99683.59;;;9.24;100.00
47054;BME280;32811;52.382;5.270;2023-04-01T08:13:39;99690.50;;;9.21;100.00
47054;BME280;32811;52.382;5.270;2023-04-01T08:16:23;99687.09;;;9.16;100.00
47054;BME280;32811;52.382;5.270;2023-04-01T08:19:12;99703.38;;;9.19;100.00
47054;BME280;32811;52.382;5.270;2023-04-01T08:21:47;99693.16;;;9.11;100.00
47054;BME280;32811;52.382;5.270;2023-04-01T08:24:33;99693.16;;;9.10;100.00
47054;BME280;32811;52.382;5.270;2023-04-01T08:27:21;99694.03;;;9.09;100.00
47054;BME280;32811;52.382;5.270;2023-04-01T08:32:34;99716.25;;;9.19;100.00
47054;BME280;32811;52.382;5.270;2023-04-01T08:35:09;99717.09;;;9.21;100.00
47054;BME280;32811;52.382;5.270;2023-04-01T08:37:43;99722.22;;;9.20;100.00
47054;BME280;32811;52.382;5.270;2023-04-01T08:45:42;99737.44;;;9.52;100.00
47054;BME280;32811;52.382;5.270;2023-04-01T08:48:45;99733.13;;;9.55;100.00
47054;BME280;32811;52.382;5.270;2023-04-01T09:07:55;99743.78;;;10.04;100.00
47054;BME280;32811;52.382;5.270;2023-04-01T09:10:55;99756.50;;;10.21;100.00
47054;BME280;32811;52.382;5.270;2023-04-01T09:30:14;99780.41;;;10.33;100.00
47054;BME280;32811;52.382;5.270;2023-04-01T09:38:22;99789.94;;;10.30;100.00
47054;BME280;32811;52.382;5.270;2023-04-01T09:41:03;99783.91;;;10.25;100.00
47054;BME280;32811;52.382;5.270;2023-04-01T09:43:47;99789.88;;;10.33;100.00
47054;BME280;32811;52.382;5.270;2023-04-01T10:13:56;99827.75;;;10.26;100.00
47054;BME280;32811;52.382;5.270;2023-04-01T11:04:58;99871.16;;;10.71;100.00
47054;BME280;32811;52.382;5.270;2023-04-01T11:32:02;99891.47;;;10.13;100.00
47054;BME280;32811;52.382;5.270;2023-04-01T11:43:08;99913.16;;;9.91;100.00
47054;BME280;32811;52.382;5.270;2023-04-01T11:46:10;99929.44;;;9.97;100.00
47054;BME280;32811;52.382;5.270;2023-04-01T11:51:53;99937.97;;;10.04;100.00
47054;BME280;32811;52.382;5.270;2023-04-01T11:54:27;99937.91;;;10.16;100.00
47054;BME280;32811;52.382;5.270;2023-04-01T12:00:05;99949.56;;;10.59;100.00
47054;BME280;32811;52.382;5.270;2023-04-01T12:02:54;99947.56;;;10.84;100.00
47054;BME280;32811;52.382;5.270;2023-04-01T12:05:44;99950.09;;;10.90;100.00
47054;BME280;32811;52.382;5.270;2023-04-01T12:19:52;99966.69;;;10.65;100.00
47054;BME280;32811;52.382;5.270;2023-04-01T12:22:49;99985.75;;;10.54;100.00
47054;BME280;32811;52.382;5.270;2023-04-01T12:33:59;100001.31;;;10.45;100.00
47054;BME280;32811;52.382;5.270;2023-04-01T12:36:51;99996.19;;;10.41;100.00
47054;BME280;32811;52.382;5.270;2023-04-01T12:47:25;100016.22;;;10.02;100.00
47054;BME280;32811;52.382;5.270;2023-04-01T12:53:09;100022.31;;;9.88;100.00
47054;BME280;32811;52.382;5.270;2023-04-01T12:55:41;100030.88;;;9.89;100.00
47054;BME280;32811;52.382;5.270;2023-04-01T13:09:28;100046.44;;;9.76;100.00
47054;BME280;32811;52.382;5.270;2023-04-01T13:18:12;100056.72;;;9.80;100.00
47054;BME280;32811;52.382;5.270;2023-04-01T13:20:58;100067.00;;;9.86;100.00
47054;BME280;32811;52.382;5.270;2023-04-01T13:26:45;100078.06;;;10.00;100.00
47054;BME280;32811;52.382;5.270;2023-04-01T13:29:34;100078.97;;;9.93;100.00
47054;BME280;32811;52.382;5.270;2023-04-01T13:40:26;100090.91;;;10.11;100.00
47054;BME280;32811;52.382;5.270;2023-04-01T13:42:54;100090.03;;;10.18;100.00
47054;BME280;32811;52.382;5.270;2023-04-01T13:45:24;100092.63;;;10.16;100.00
47054;BME280;32811;52.382;5.270;2023-04-01T14:01:17;100106.56;;;9.79;100.00
47054;BME280;32811;52.382;5.270;2023-04-01T14:06:57;100135.78;;;9.71;100.00
47054;BME280;32811;52.382;5.270;2023-04-01T14:12:27;100142.66;;;9.68;100.00
47054;BME280;32811;52.382;5.270;2023-04-01T14:20:35;100155.59;;;9.60;100.00
47054;BME280;32811;52.382;5.270;2023-04-01T14:37:55;100177.09;;;9.39;100.00
47054;BME280;32811;52.382;5.270;2023-04-01T14:40:39;100174.53;;;9.25;100.00
47054;BME280;32811;52.382;5.270;2023-04-01T14:43:40;100206.28;;;9.37;100.00
47054;BME280;32811;52.382;5.270;2023-04-01T14:46:22;100202.84;;;9.34;100.00
47054;BME280;32811;52.382;5.270;2023-04-01T14:49:24;100192.56;;;9.22;100.00
47054;BME280;32811;52.382;5.270;2023-04-01T14:52:04;100211.44;;;9.30;100.00
47054;BME280;32811;52.382;5.270;2023-04-01T14:54:35;100218.31;;;9.27;100.00
47054;BME280;32811;52.382;5.270;2023-04-01T14:57:25;100232.88;;;9.28;100.00
47054;BME280;32811;52.382;5.270;2023-04-01T15:00:17;100218.28;;;9.19;100.00
47054;BME280;32811;52.382;5.270;2023-04-01T15:06:00;100221.72;;;9.06;100.00
47054;BME280;32811;52.382;5.270;2023-04-01T15:09:02;100257.78;;;9.20;100.00
47054;BME280;32811;52.382;5.270;2023-04-01T15:11:54;100256.06;;;9.14;100.00
47054;BME280;32811;52.382;5.270;2023-04-01T15:30:44;100276.63;;;8.99;100.00
47054;BME280;32811;52.382;5.270;2023-04-01T15:36:09;100296.41;;;9.09;100.00
47054;BME280;32811;52.382;5.270;2023-04-01T15:39:00;100306.69;;;9.12;100.00
47054;BME280;32811;52.382;5.270;2023-04-01T15:41:48;100310.97;;;9.04;100.00
47054;BME280;32811;52.382;5.270;2023-04-01T15:47:25;100307.50;;;8.97;100.00
47054;BME280;32811;52.382;5.270;2023-04-01T15:52:43;100341.00;;;8.96;100.00
47054;BME280;32811;52.382;5.270;2023-04-01T15:55:37;100335.81;;;8.85;100.00
47054;BME280;32811;52.382;5.270;2023-04-01T16:06:55;100370.97;;;8.84;100.00
47054;BME280;32811;52.382;5.270;2023-04-01T16:15:29;100381.19;;;8.70;100.00
47054;BME280;32811;52.382;5.270;2023-04-01T16:18:32;100400.09;;;8.71;100.00
47054;BME280;32811;52.382;5.270;2023-04-01T16:21:07;100404.28;;;8.55;100.00
47054;BME280;32811;52.382;5.270;2023-04-01T16:23:51;100409.41;;;8.52;100.00
47054;BME280;32811;52.382;5.270;2023-04-01T16:31:46;100421.34;;;8.42;100.00
47054;BME280;32811;52.382;5.270;2023-04-01T16:34:26;100430.78;;;8.40;100.00
47054;BME280;32811;52.382;5.270;2023-04-01T16:36:59;100406.66;;;8.32;100.00
47054;BME280;32811;52.382;5.270;2023-04-01T16:42:22;100435.00;;;8.37;100.00
47054;BME280;32811;52.382;5.270;2023-04-01T16:44:55;100424.69;;;8.30;100.00
47054;BME280;32811;52.382;5.270;2023-04-01T16:47:39;100447.84;;;8.34;100.00
47054;BME280;32811;52.382;5.270;2023-04-01T16:50:24;100458.09;;;8.29;100.00
47054;BME280;32811;52.382;5.270;2023-04-01T16:53:19;100466.63;;;8.28;100.00
47054;BME280;32811;52.382;5.270;2023-04-01T16:56:04;100473.44;;;8.20;100.00
47054;BME280;32811;52.382;5.270;2023-04-01T16:59:01;100458.75;;;8.05;100.00
47054;BME280;32811;52.382;5.270;2023-04-01T17:01:43;100485.41;;;8.16;100.00
47054;BME280;32811;52.382;5.270;2023-04-01T17:10:24;100506.81;;;8.17;100.00
47054;BME280;32811;52.382;5.270;2023-04-01T17:18:32;100511.84;;;8.06;100.00
47054;BME280;32811;52.382;5.270;2023-04-01T17:21:10;100529.81;;;8.00;100.00
47054;BME280;32811;52.382;5.270;2023-04-01T17:23:53;100534.03;;;7.95;100.00
47054;BME280;32811;52.382;5.270;2023-04-01T17:26:40;100545.13;;;7.92;100.00
47054;BME280;32811;52.382;5.270;2023-04-01T17:29:29;100551.16;;;7.94;100.00
47054;BME280;32811;52.382;5.270;2023-04-01T17:32:20;100561.44;;;7.93;100.00
47054;BME280;32811;52.382;5.270;2023-04-01T17:35:12;100559.72;;;7.92;100.00
47054;BME280;32811;52.382;5.270;2023-04-01T17:37:53;100551.00;;;7.79;100.00
47054;BME280;32811;52.382;5.270;2023-04-01T17:45:57;100596.50;;;7.86;100.00
47054;BME280;32811;52.382;5.270;2023-04-01T17:51:34;100600.72;;;7.82;100.00
47054;BME280;32811;52.382;5.270;2023-04-01T17:59:38;100606.50;;;7.64;100.00
47054;BME280;32811;52.382;5.270;2023-04-01T18:07:39;100643.28;;;7.63;100.00
47054;BME280;32811;52.382;5.270;2023-04-01T18:10:17;100657.81;;;7.60;100.00
47054;BME280;32811;52.382;5.270;2023-04-01T18:16:00;100668.06;;;7.58;100.00
47054;BME280;32811;52.382;5.270;2023-04-01T18:18:46;100674.00;;;7.53;100.00
47054;BME280;32811;52.382;5.270;2023-04-01T18:23:55;100682.41;;;7.45;100.00
47054;BME280;32811;52.382;5.270;2023-04-01T18:26:31;100684.91;;;7.39;100.00
47054;BME280;32811;52.382;5.270;2023-04-01T18:29:14;100690.72;;;7.27;100.00
47054;BME280;32811;52.382;5.270;2023-04-01T18:31:49;100711.41;;;7.38;100.00
47054;BME280;32811;52.382;5.270;2023-04-01T18:36:51;100712.09;;;7.26;100.00
47054;BME280;32811;52.382;5.270;2023-04-01T18:39:32;100729.34;;;7.35;100.00
47054;BME280;32811;52.382;5.270;2023-04-01T18:42:06;100739.59;;;7.34;100.00
47054;BME280;32811;52.382;5.270;2023-04-01T18:44:41;100736.91;;;7.27;100.00
47054;BME280;32811;52.382;5.270;2023-04-01T18:47:27;100750.72;;;7.33;100.00
47054;BME280;32811;52.382;5.270;2023-04-01T18:50:06;100723.00;;;7.13;100.00
47054;BME280;32811;52.382;5.270;2023-04-01T18:52:41;100758.19;;;7.20;100.00
47054;BME280;32811;52.382;5.270;2023-04-01T18:55:28;100765.88;;;7.19;100.00
47054;BME280;32811;52.382;5.270;2023-04-01T18:58:10;100769.28;;;7.18;100.00
47054;BME280;32811;52.382;5.270;2023-04-01T19:00:43;100775.28;;;7.18;100.00
47054;BME280;32811;52.382;5.270;2023-04-01T19:03:25;100788.06;;;7.15;100.00
47054;BME280;32811;52.382;5.270;2023-04-01T19:05:56;100777.56;;;7.03;100.00
47054;BME280;32811;52.382;5.270;2023-04-01T19:08:34;100802.47;;;7.07;100.00
47054;BME280;32811;52.382;5.270;2023-04-01T19:16:53;100824.56;;;6.99;100.00
47054;BME280;32811;52.382;5.270;2023-04-01T19:32:33;100861.97;;;6.88;100.00
47054;BME280;32811;52.382;5.270;2023-04-01T19:37:40;100867.94;;;6.86;100.00
47054;BME280;32811;52.382;5.270;2023-04-01T19:42:53;100880.53;;;6.74;100.00
47054;BME280;32811;52.382;5.270;2023-04-01T19:45:43;100884.78;;;6.74;100.00
47054;BME280;32811;52.382;5.270;2023-04-01T19:51:13;100886.91;;;6.54;100.00
47054;BME280;32811;52.382;5.270;2023-04-01T19:54:04;100888.72;;;6.58;100.00
47054;BME280;32811;52.382;5.270;2023-04-01T19:56:47;100897.28;;;6.58;100.00
47054;BME280;32811;52.382;5.270;2023-04-01T19:59:55;100904.97;;;6.58;100.00
47054;BME280;32811;52.382;5.270;2023-04-01T20:02:39;100912.50;;;6.51;100.00
47054;BME280;32811;52.382;5.270;2023-04-01T20:05:33;100922.66;;;6.46;100.00
47054;BME280;32811;52.382;5.270;2023-04-01T20:08:18;100900.19;;;6.34;100.00
47054;BME280;32811;52.382;5.270;2023-04-01T20:16:08;100952.59;;;6.47;100.00
47054;BME280;32811;52.382;5.270;2023-04-01T20:18:40;100956.09;;;6.51;100.00
47054;BME280;32811;52.382;5.270;2023-04-01T20:23:43;100957.66;;;6.44;100.00
47054;BME280;32811;52.382;5.270;2023-04-01T20:26:12;100978.84;;;6.37;100.00
47054;BME280;32811;52.382;5.270;2023-04-01T20:31:23;100979.59;;;6.33;100.00
47054;BME280;32811;52.382;5.270;2023-04-01T20:42:04;101002.41;;;6.22;100.00
47054;BME280;32811;52.382;5.270;2023-04-01T20:47:47;101012.66;;;6.22;100.00
47054;BME280;32811;52.382;5.270;2023-04-01T20:53:12;101033.09;;;6.19;100.00
47054;BME280;32811;52.382;5.270;2023-04-01T20:56:12;101035.66;;;6.19;100.00
47054;BME280;32811;52.382;5.270;2023-04-01T21:09:55;101060.28;;;6.14;100.00
47054;BME280;32811;52.382;5.270;2023-04-01T21:12:37;101071.38;;;6.13;100.00
47054;BME280;32811;52.382;5.270;2023-04-01T21:21:10;101075.31;;;6.00;100.00
47054;BME280;32811;52.382;5.270;2023-04-01T21:29:33;101101.56;;;5.93;100.00
47054;BME280;32811;52.382;5.270;2023-04-01T21:34:55;101110.94;;;5.92;100.00
47054;BME280;32811;52.382;5.270;2023-04-01T21:54:27;101145.63;;;5.81;100.00
47054;BME280;32811;52.382;5.270;2023-04-01T22:03:11;101164.50;;;5.85;100.00
47054;BME280;32811;52.382;5.270;2023-04-01T22:08:58;101178.81;;;5.78;100.00
47054;BME280;32811;52.382;5.270;2023-04-01T22:14:22;101188.72;;;5.66;100.00
47054;BME280;32811;52.382;5.270;2023-04-01T22:20:14;101200.53;;;5.60;100.00
47054;BME280;32811;52.382;5.270;2023-04-01T22:28:07;101220.25;;;5.65;100.00
47054;BME280;32811;52.382;5.270;2023-04-01T22:41:40;101235.47;;;5.58;100.00
47054;BME280;32811;52.382;5.270;2023-04-01T22:49:49;101257.31;;;5.49;100.00